Time;durP1;ratioP1;P1;durP2;ratioP2;P2;SDS_P1;SDS_P2;PMS_P1;PMS_P2;Temp;Humidity;BMP_temperature;BMP_pressure;BME280_temperature;BME280_humidity;BME280_pressure;Samples;Min_cycle;Max_cycle;Signal;HPM_P1;HPM_P2
2022/10/06 00:00:00;;;;;;;0.4;0.4;;;;;;;14.5;100.0;101880;;;;
2022/10/06 00:01:01;;;;;;;0.4;0.4;;;;;;;14.5;100.0;101880;;;;
2022/10/06 00:02:00;;;;;;;0.4;0.4;;;;;;;14.5;100.0;101880;;;;
2022/10/06 00:03:00;;;;;;;0.4;0.4;;;;;;;14.5;100.0;101880;;;;
2022/10/06 00:04:00;;;;;;;0.4;0.4;;;;;;;14.5;100.0;101890;;;;
2022/10/06 00:05:00;;;;;;;0.4;0.4;;;;;;;14.5;100.0;101890;;;;
2022/10/06 00:06:01;;;;;;;0.4;0.4;;;;;;;14.4;100.0;101890;;;;
2022/10/06 00:07:00;;;;;;;0.4;0.4;;;;;;;14.4;100.0;101890;;;;
2022/10/06 00:08:01;;;;;;;0.4;0.4;;;;;;;14.5;100.0;101900;;;;
2022/10/06 00:09:00;;;;;;;0.4;0.4;;;;;;;14.5;100.0;101900;;;;
2022/10/06 00:10:00;;;;;;;0.4;0.4;;;;;;;14.4;100.0;101900;;;;
2022/10/06 00:11:00;;;;;;;0.4;0.4;;;;;;;14.4;100.0;101900;;;;
2022/10/06 00:12:00;;;;;;;0.4;0.4;;;;;;;14.3;100.0;101910;;;;
2022/10/06 00:13:00;;;;;;;0.4;0.4;;;;;;;14.3;100.0;101910;;;;
2022/10/06 00:14:00;;;;;;;0.4;0.4;;;;;;;14.4;100.0;101920;;;;
2022/10/06 00:15:00;;;;;;;0.4;0.4;;;;;;;14.4;100.0;101920;;;;
2022/10/06 00:16:01;;;;;;;0.4;0.4;;;;;;;14.4;100.0;101920;;;;
2022/10/06 00:17:00;;;;;;;0.4;0.4;;;;;;;14.4;100.0;101920;;;;
2022/10/06 00:18:00;;;;;;;0.4;0.4;;;;;;;14.4;100.0;101920;;;;
2022/10/06 00:19:00;;;;;;;0.4;0.4;;;;;;;14.4;100.0;101920;;;;
2022/10/06 00:20:00;;;;;;;0.4;0.4;;;;;;;14.2;100.0;101920;;;;
2022/10/06 00:21:00;;;;;;;0.4;0.4;;;;;;;14.2;100.0;101920;;;;
2022/10/06 00:22:00;;;;;;;0.4;0.4;;;;;;;14.1;100.0;101930;;;;
2022/10/06 00:23:00;;;;;;;0.4;0.4;;;;;;;14.1;100.0;101930;;;;
2022/10/06 00:24:00;;;;;;;0.4;0.4;;;;;;;14.2;100.0;101930;;;;
2022/10/06 00:25:00;;;;;;;0.4;0.4;;;;;;;14.2;100.0;101930;;;;
2022/10/06 00:26:00;;;;;;;0.4;0.4;;;;;;;14.2;100.0;101930;;;;
2022/10/06 00:27:00;;;;;;;0.4;0.4;;;;;;;14.2;100.0;101930;;;;
2022/10/06 00:28:00;;;;;;;0.4;0.4;;;;;;;14.2;100.0;101940;;;;
2022/10/06 00:29:00;;;;;;;0.4;0.4;;;;;;;14.2;100.0;101940;;;;
2022/10/06 00:30:00;;;;;;;0.4;0.4;;;;;;;14.2;100.0;101940;;;;
2022/10/06 00:31:01;;;;;;;0.4;0.4;;;;;;;14.2;100.0;101940;;;;
2022/10/06 00:32:00;;;;;;;0.4;0.4;;;;;;;14.3;100.0;101950;;;;
2022/10/06 00:33:01;;;;;;;0.4;0.4;;;;;;;14.3;100.0;101950;;;;
2022/10/06 00:34:00;;;;;;;0.4;0.4;;;;;;;14.2;100.0;101950;;;;
2022/10/06 00:35:00;;;;;;;0.4;0.4;;;;;;;14.2;100.0;101950;;;;
2022/10/06 00:36:00;;;;;;;0.4;0.4;;;;;;;14.2;100.0;101950;;;;
2022/10/06 00:37:00;;;;;;;0.4;0.4;;;;;;;14.2;100.0;101950;;;;
2022/10/06 00:38:00;;;;;;;0.4;0.4;;;;;;;14.2;100.0;101950;;;;
2022/10/06 00:39:00;;;;;;;0.4;0.4;;;;;;;14.2;100.0;101950;;;;
2022/10/06 00:40:00;;;;;;;0.4;0.4;;;;;;;14.1;100.0;101970;;;;
2022/10/06 00:41:00;;;;;;;0.4;0.4;;;;;;;14.1;100.0;101970;;;;
2022/10/06 00:42:00;;;;;;;0.4;0.4;;;;;;;14.1;100.0;101970;;;;
2022/10/06 00:43:01;;;;;;;0.4;0.4;;;;;;;14.1;100.0;101970;;;;
2022/10/06 00:44:00;;;;;;;0.4;0.4;;;;;;;14.0;100.0;101970;;;;
2022/10/06 00:45:02;;;;;;;0.4;0.4;;;;;;;14.0;100.0;101970;;;;
2022/10/06 00:46:00;;;;;;;0.4;0.4;;;;;;;13.9;100.0;101970;;;;
2022/10/06 00:47:00;;;;;;;0.4;0.4;;;;;;;13.9;100.0;101970;;;;
2022/10/06 00:48:04;;;;;;;0.4;0.4;;;;;;;14.0;100.0;101980;;;;
2022/10/06 00:49:04;;;;;;;0.4;0.4;;;;;;;14.0;100.0;101980;;;;
2022/10/06 00:50:01;;;;;;;0.4;0.4;;;;;;;14.0;100.0;101980;;;;
2022/10/06 00:51:00;;;;;;;0.4;0.4;;;;;;;14.0;100.0;101980;;;;
2022/10/06 00:52:03;;;;;;;0.5;0.5;;;;;;;13.8;100.0;101990;;;;
2022/10/06 00:53:00;;;;;;;0.5;0.5;;;;;;;13.8;100.0;101990;;;;
2022/10/06 00:54:01;;;;;;;0.5;0.5;;;;;;;13.9;100.0;101990;;;;
2022/10/06 00:55:03;;;;;;;0.5;0.5;;;;;;;13.9;100.0;101990;;;;
2022/10/06 00:56:00;;;;;;;0.5;0.5;;;;;;;14.0;100.0;101990;;;;
2022/10/06 00:57:00;;;;;;;0.5;0.5;;;;;;;14.0;100.0;101990;;;;
2022/10/06 00:58:00;;;;;;;0.5;0.5;;;;;;;13.9;100.0;101990;;;;
2022/10/06 00:59:00;;;;;;;0.5;0.5;;;;;;;13.9;100.0;101990;;;;
2022/10/06 01:00:00;;;;;;;0.5;0.5;;;;;;;13.9;100.0;101990;;;;
2022/10/06 01:01:01;;;;;;;0.5;0.5;;;;;;;13.9;100.0;101990;;;;
2022/10/06 01:02:08;;;;;;;0.5;0.5;;;;;;;13.9;100.0;101990;;;;
2022/10/06 01:03:04;;;;;;;0.5;0.5;;;;;;;14.0;100.0;101990;;;;
2022/10/06 01:04:04;;;;;;;0.5;0.5;;;;;;;14.0;100.0;101990;;;;
2022/10/06 01:05:02;;;;;;;0.5;0.5;;;;;;;14.0;100.0;101990;;;;
2022/10/06 01:06:01;;;;;;;0.5;0.5;;;;;;;14.0;100.0;102000;;;;
2022/10/06 01:07:00;;;;;;;0.5;0.5;;;;;;;14.0;100.0;102000;;;;
2022/10/06 01:08:00;;;;;;;0.5;0.5;;;;;;;14.0;100.0;102000;;;;
2022/10/06 01:09:00;;;;;;;0.5;0.5;;;;;;;14.0;100.0;102000;;;;
2022/10/06 01:10:00;;;;;;;0.5;0.5;;;;;;;13.9;100.0;102000;;;;
2022/10/06 01:11:01;;;;;;;0.5;0.5;;;;;;;13.9;100.0;102000;;;;
2022/10/06 01:12:03;;;;;;;0.5;0.5;;;;;;;13.8;100.0;102010;;;;
2022/10/06 01:13:01;;;;;;;0.5;0.5;;;;;;;13.8;100.0;102010;;;;
2022/10/06 01:14:00;;;;;;;0.5;0.5;;;;;;;13.9;100.0;102010;;;;
2022/10/06 01:15:00;;;;;;;0.5;0.5;;;;;;;13.9;100.0;102010;;;;
2022/10/06 01:16:04;;;;;;;0.5;0.5;;;;;;;13.9;100.0;102020;;;;
2022/10/06 01:17:03;;;;;;;0.5;0.5;;;;;;;13.8;100.0;102020;;;;
2022/10/06 01:18:03;;;;;;;0.5;0.5;;;;;;;13.8;100.0;102020;;;;
2022/10/06 01:19:02;;;;;;;0.5;0.5;;;;;;;13.8;100.0;102020;;;;
2022/10/06 01:20:07;;;;;;;0.5;0.5;;;;;;;13.8;100.0;102020;;;;
2022/10/06 01:21:06;;;;;;;0.5;0.5;;;;;;;13.8;100.0;102030;;;;
2022/10/06 01:22:04;;;;;;;0.5;0.5;;;;;;;13.8;100.0;102030;;;;
2022/10/06 01:23:02;;;;;;;0.5;0.5;;;;;;;13.8;100.0;102030;;;;
2022/10/06 01:24:00;;;;;;;0.5;0.5;;;;;;;13.8;100.0;102030;;;;
2022/10/06 01:25:00;;;;;;;0.5;0.5;;;;;;;13.8;100.0;102030;;;;
2022/10/06 01:26:02;;;;;;;0.5;0.5;;;;;;;13.7;100.0;102030;;;;
2022/10/06 01:27:00;;;;;;;0.5;0.5;;;;;;;13.7;100.0;102030;;;;
2022/10/06 01:28:02;;;;;;;0.5;0.5;;;;;;;13.7;100.0;102030;;;;
2022/10/06 01:29:00;;;;;;;0.5;0.5;;;;;;;13.7;100.0;102030;;;;
2022/10/06 01:30:00;;;;;;;0.5;0.5;;;;;;;13.7;100.0;102040;;;;
2022/10/06 01:31:00;;;;;;;0.5;0.5;;;;;;;13.7;100.0;102040;;;;
2022/10/06 01:32:00;;;;;;;0.5;0.5;;;;;;;13.6;100.0;102050;;;;
2022/10/06 01:33:00;;;;;;;0.5;0.5;;;;;;;13.6;100.0;102050;;;;
2022/10/06 01:34:00;;;;;;;0.5;0.5;;;;;;;13.6;100.0;102050;;;;
2022/10/06 01:35:00;;;;;;;0.5;0.5;;;;;;;13.6;100.0;102050;;;;
2022/10/06 01:36:00;;;;;;;0.5;0.5;;;;;;;13.5;100.0;102050;;;;
2022/10/06 01:37:00;;;;;;;0.5;0.5;;;;;;;13.5;100.0;102050;;;;
2022/10/06 01:38:00;;;;;;;0.5;0.5;;;;;;;13.5;100.0;102050;;;;
2022/10/06 01:39:00;;;;;;;0.5;0.5;;;;;;;13.5;100.0;102050;;;;
2022/10/06 01:40:00;;;;;;;0.5;0.5;;;;;;;13.6;100.0;102060;;;;
2022/10/06 01:41:00;;;;;;;0.5;0.5;;;;;;;13.6;100.0;102060;;;;
2022/10/06 01:42:00;;;;;;;0.5;0.5;;;;;;;13.6;100.0;102060;;;;
2022/10/06 01:43:00;;;;;;;0.5;0.5;;;;;;;13.6;100.0;102060;;;;
2022/10/06 01:44:00;;;;;;;0.5;0.5;;;;;;;13.6;100.0;102060;;;;
2022/10/06 01:45:00;;;;;;;0.5;0.5;;;;;;;13.6;100.0;102060;;;;
2022/10/06 01:46:00;;;;;;;0.5;0.5;;;;;;;13.6;100.0;102060;;;;
2022/10/06 01:47:00;;;;;;;0.5;0.5;;;;;;;13.6;100.0;102060;;;;
2022/10/06 01:48:00;;;;;;;0.5;0.5;;;;;;;13.5;100.0;102060;;;;
2022/10/06 01:49:00;;;;;;;0.5;0.5;;;;;;;13.5;100.0;102060;;;;
2022/10/06 01:50:00;;;;;;;0.5;0.5;;;;;;;13.4;100.0;102060;;;;
2022/10/06 01:51:00;;;;;;;0.5;0.5;;;;;;;13.4;100.0;102060;;;;
2022/10/06 01:52:00;;;;;;;0.5;0.5;;;;;;;13.4;100.0;102060;;;;
2022/10/06 01:53:00;;;;;;;0.5;0.5;;;;;;;13.4;100.0;102060;;;;
2022/10/06 01:54:00;;;;;;;0.5;0.5;;;;;;;13.4;100.0;102070;;;;
2022/10/06 01:55:00;;;;;;;0.5;0.5;;;;;;;13.4;100.0;102070;;;;
2022/10/06 01:56:00;;;;;;;0.5;0.5;;;;;;;13.4;100.0;102060;;;;
2022/10/06 01:57:00;;;;;;;0.5;0.5;;;;;;;13.4;100.0;102060;;;;
2022/10/06 01:58:00;;;;;;;0.5;0.5;;;;;;;13.4;100.0;102070;;;;
2022/10/06 01:59:00;;;;;;;0.5;0.5;;;;;;;13.4;100.0;102070;;;;
2022/10/06 02:00:00;;;;;;;0.5;0.5;;;;;;;13.5;100.0;102080;;;;
2022/10/06 02:01:06;;;;;;;0.5;0.5;;;;;;;13.4;100.0;102080;;;;
2022/10/06 02:02:00;;;;;;;0.5;0.5;;;;;;;13.4;100.0;102080;;;;
2022/10/06 02:03:00;;;;;;;0.5;0.5;;;;;;;13.4;100.0;102080;;;;
2022/10/06 02:04:00;;;;;;;0.5;0.5;;;;;;;13.3;100.0;102080;;;;
2022/10/06 02:05:00;;;;;;;0.5;0.5;;;;;;;13.3;100.0;102080;;;;
2022/10/06 02:06:00;;;;;;;0.5;0.5;;;;;;;13.4;100.0;102080;;;;
2022/10/06 02:07:00;;;;;;;0.5;0.5;;;;;;;13.4;100.0;102080;;;;
2022/10/06 02:08:01;;;;;;;0.5;0.5;;;;;;;13.3;100.0;102080;;;;
2022/10/06 02:09:00;;;;;;;0.5;0.5;;;;;;;13.3;100.0;102080;;;;
2022/10/06 02:10:00;;;;;;;0.5;0.5;;;;;;;13.3;100.0;102080;;;;
2022/10/06 02:11:04;;;;;;;0.5;0.5;;;;;;;13.4;100.0;102090;;;;
2022/10/06 02:12:01;;;;;;;0.6;0.6;;;;;;;13.4;100.0;102090;;;;
2022/10/06 02:13:00;;;;;;;0.6;0.6;;;;;;;13.4;100.0;102090;;;;
2022/10/06 02:14:01;;;;;;;0.6;0.6;;;;;;;13.5;100.0;102100;;;;
2022/10/06 02:15:00;;;;;;;0.6;0.6;;;;;;;13.5;100.0;102100;;;;
2022/10/06 02:16:00;;;;;;;0.6;0.6;;;;;;;13.4;100.0;102090;;;;
2022/10/06 02:17:00;;;;;;;0.6;0.6;;;;;;;13.4;100.0;102090;;;;
2022/10/06 02:18:00;;;;;;;0.6;0.6;;;;;;;13.3;100.0;102090;;;;
2022/10/06 02:19:00;;;;;;;0.6;0.6;;;;;;;13.3;100.0;102090;;;;
2022/10/06 02:20:00;;;;;;;0.6;0.6;;;;;;;13.3;100.0;102100;;;;
2022/10/06 02:21:00;;;;;;;0.6;0.6;;;;;;;13.3;100.0;102100;;;;
2022/10/06 02:22:01;;;;;;;0.6;0.6;;;;;;;13.3;100.0;102100;;;;
2022/10/06 02:23:00;;;;;;;0.6;0.6;;;;;;;13.3;100.0;102100;;;;
2022/10/06 02:24:00;;;;;;;0.6;0.6;;;;;;;13.3;100.0;102110;;;;
2022/10/06 02:25:00;;;;;;;0.6;0.6;;;;;;;13.3;100.0;102110;;;;
2022/10/06 02:26:01;;;;;;;0.6;0.6;;;;;;;13.3;100.0;102110;;;;
2022/10/06 02:27:00;;;;;;;0.6;0.6;;;;;;;13.3;100.0;102110;;;;
2022/10/06 02:28:00;;;;;;;0.6;0.6;;;;;;;13.3;100.0;102120;;;;
2022/10/06 02:29:00;;;;;;;0.6;0.6;;;;;;;13.3;100.0;102120;;;;
2022/10/06 02:30:00;;;;;;;0.6;0.6;;;;;;;13.4;100.0;102120;;;;
2022/10/06 02:31:01;;;;;;;0.6;0.6;;;;;;;13.4;100.0;102120;;;;
2022/10/06 02:32:00;;;;;;;0.5;0.5;;;;;;;13.2;100.0;102120;;;;
2022/10/06 02:33:00;;;;;;;0.5;0.5;;;;;;;13.2;100.0;102120;;;;
2022/10/06 02:34:01;;;;;;;0.5;0.5;;;;;;;13.3;100.0;102120;;;;
2022/10/06 02:35:00;;;;;;;0.5;0.5;;;;;;;13.3;100.0;102120;;;;
2022/10/06 02:36:00;;;;;;;0.5;0.5;;;;;;;13.1;100.0;102130;;;;
2022/10/06 02:37:00;;;;;;;0.5;0.5;;;;;;;13.1;100.0;102130;;;;
2022/10/06 02:38:00;;;;;;;0.5;0.5;;;;;;;13.2;100.0;102140;;;;
2022/10/06 02:39:00;;;;;;;0.5;0.5;;;;;;;13.2;100.0;102140;;;;
2022/10/06 02:40:00;;;;;;;0.5;0.5;;;;;;;13.2;100.0;102140;;;;
2022/10/06 02:41:00;;;;;;;0.5;0.5;;;;;;;13.2;100.0;102140;;;;
2022/10/06 02:42:00;;;;;;;0.5;0.5;;;;;;;13.1;100.0;102140;;;;
2022/10/06 02:43:00;;;;;;;0.5;0.5;;;;;;;13.1;100.0;102140;;;;
2022/10/06 02:44:00;;;;;;;0.5;0.5;;;;;;;13.1;100.0;102140;;;;
2022/10/06 02:45:00;;;;;;;0.5;0.5;;;;;;;13.1;100.0;102140;;;;
2022/10/06 02:46:01;;;;;;;0.5;0.5;;;;;;;13.1;100.0;102140;;;;
2022/10/06 02:47:00;;;;;;;0.5;0.5;;;;;;;13.1;100.0;102140;;;;
2022/10/06 02:48:00;;;;;;;0.5;0.5;;;;;;;13.2;100.0;102140;;;;
2022/10/06 02:49:00;;;;;;;0.5;0.5;;;;;;;13.2;100.0;102140;;;;
2022/10/06 02:50:00;;;;;;;0.5;0.5;;;;;;;13.0;100.0;102140;;;;
2022/10/06 02:51:03;;;;;;;0.5;0.5;;;;;;;12.9;100.0;102150;;;;
2022/10/06 02:52:00;;;;;;;0.5;0.5;;;;;;;12.9;100.0;102150;;;;
2022/10/06 02:53:00;;;;;;;0.5;0.5;;;;;;;12.9;100.0;102150;;;;
2022/10/06 02:54:00;;;;;;;0.5;0.5;;;;;;;12.9;100.0;102160;;;;
2022/10/06 02:55:01;;;;;;;0.5;0.5;;;;;;;12.9;100.0;102160;;;;
2022/10/06 02:56:01;;;;;;;0.5;0.5;;;;;;;13.0;100.0;102160;;;;
2022/10/06 02:57:00;;;;;;;0.5;0.5;;;;;;;13.0;100.0;102160;;;;
2022/10/06 02:58:00;;;;;;;0.5;0.5;;;;;;;12.9;100.0;102160;;;;
2022/10/06 02:59:00;;;;;;;0.5;0.5;;;;;;;12.9;100.0;102160;;;;
2022/10/06 03:00:00;;;;;;;0.5;0.5;;;;;;;12.9;100.0;102170;;;;
2022/10/06 03:01:02;;;;;;;0.5;0.5;;;;;;;12.9;100.0;102170;;;;
2022/10/06 03:02:00;;;;;;;0.5;0.5;;;;;;;12.9;100.0;102170;;;;
2022/10/06 03:03:00;;;;;;;0.5;0.5;;;;;;;12.9;100.0;102170;;;;
2022/10/06 03:04:00;;;;;;;0.5;0.5;;;;;;;12.9;100.0;102170;;;;
2022/10/06 03:05:00;;;;;;;0.5;0.5;;;;;;;12.9;100.0;102170;;;;
2022/10/06 03:06:03;;;;;;;0.5;0.5;;;;;;;12.9;100.0;102170;;;;
2022/10/06 03:07:00;;;;;;;0.5;0.5;;;;;;;12.9;100.0;102170;;;;
2022/10/06 03:08:00;;;;;;;0.5;0.5;;;;;;;12.8;100.0;102180;;;;
2022/10/06 03:09:01;;;;;;;0.5;0.5;;;;;;;12.8;100.0;102180;;;;
2022/10/06 03:10:00;;;;;;;0.5;0.5;;;;;;;12.9;100.0;102180;;;;
2022/10/06 03:11:01;;;;;;;0.5;0.5;;;;;;;12.9;100.0;102180;;;;
2022/10/06 03:12:00;;;;;;;0.5;0.5;;;;;;;12.9;100.0;102190;;;;
2022/10/06 03:13:00;;;;;;;0.5;0.5;;;;;;;12.9;100.0;102190;;;;
2022/10/06 03:14:00;;;;;;;0.5;0.5;;;;;;;12.8;100.0;102180;;;;
2022/10/06 03:15:00;;;;;;;0.5;0.5;;;;;;;12.8;100.0;102180;;;;
2022/10/06 03:16:00;;;;;;;0.5;0.5;;;;;;;12.7;100.0;102180;;;;
2022/10/06 03:17:00;;;;;;;0.5;0.5;;;;;;;12.7;100.0;102180;;;;
2022/10/06 03:18:00;;;;;;;0.5;0.5;;;;;;;12.6;100.0;102190;;;;
2022/10/06 03:19:00;;;;;;;0.5;0.5;;;;;;;12.6;100.0;102190;;;;
2022/10/06 03:20:00;;;;;;;0.5;0.5;;;;;;;12.6;100.0;102200;;;;
2022/10/06 03:21:00;;;;;;;0.5;0.5;;;;;;;12.6;100.0;102200;;;;
2022/10/06 03:22:00;;;;;;;0.5;0.5;;;;;;;12.7;100.0;102200;;;;
2022/10/06 03:23:00;;;;;;;0.5;0.5;;;;;;;12.7;100.0;102200;;;;
2022/10/06 03:24:00;;;;;;;0.5;0.5;;;;;;;12.7;100.0;102200;;;;
2022/10/06 03:25:00;;;;;;;0.5;0.5;;;;;;;12.7;100.0;102200;;;;
2022/10/06 03:26:00;;;;;;;0.5;0.5;;;;;;;12.6;100.0;102200;;;;
2022/10/06 03:27:00;;;;;;;0.5;0.5;;;;;;;12.6;100.0;102200;;;;
2022/10/06 03:28:00;;;;;;;0.5;0.5;;;;;;;12.6;100.0;102210;;;;
2022/10/06 03:29:00;;;;;;;0.5;0.5;;;;;;;12.6;100.0;102210;;;;
2022/10/06 03:30:00;;;;;;;0.5;0.5;;;;;;;12.5;100.0;102210;;;;
2022/10/06 03:31:01;;;;;;;0.5;0.5;;;;;;;12.5;100.0;102210;;;;
2022/10/06 03:32:00;;;;;;;0.7;0.7;;;;;;;12.5;100.0;102210;;;;
2022/10/06 03:33:00;;;;;;;0.7;0.7;;;;;;;12.5;100.0;102210;;;;
2022/10/06 03:34:00;;;;;;;0.7;0.7;;;;;;;12.6;100.0;102210;;;;
2022/10/06 03:35:00;;;;;;;0.7;0.7;;;;;;;12.6;100.0;102210;;;;
2022/10/06 03:36:01;;;;;;;0.7;0.7;;;;;;;12.5;100.0;102220;;;;
2022/10/06 03:37:00;;;;;;;0.7;0.7;;;;;;;12.5;100.0;102220;;;;
2022/10/06 03:38:00;;;;;;;0.7;0.7;;;;;;;12.5;100.0;102220;;;;
2022/10/06 03:39:01;;;;;;;0.7;0.7;;;;;;;12.5;100.0;102220;;;;
2022/10/06 03:40:00;;;;;;;0.7;0.7;;;;;;;12.5;100.0;102230;;;;
2022/10/06 03:41:10;;;;;;;0.7;0.7;;;;;;;12.5;100.0;102230;;;;
2022/10/06 03:42:00;;;;;;;0.7;0.7;;;;;;;12.5;100.0;102230;;;;
2022/10/06 03:43:00;;;;;;;0.7;0.7;;;;;;;12.5;100.0;102230;;;;
2022/10/06 03:44:00;;;;;;;0.7;0.7;;;;;;;12.5;100.0;102230;;;;
2022/10/06 03:45:00;;;;;;;0.7;0.7;;;;;;;12.5;100.0;102230;;;;
2022/10/06 03:46:00;;;;;;;0.7;0.7;;;;;;;12.4;100.0;102240;;;;
2022/10/06 03:47:00;;;;;;;0.7;0.7;;;;;;;12.4;100.0;102240;;;;
2022/10/06 03:48:00;;;;;;;0.7;0.7;;;;;;;12.5;100.0;102230;;;;
2022/10/06 03:49:00;;;;;;;0.7;0.7;;;;;;;12.5;100.0;102230;;;;
2022/10/06 03:50:00;;;;;;;0.7;0.7;;;;;;;12.4;100.0;102230;;;;
2022/10/06 03:51:01;;;;;;;0.7;0.7;;;;;;;12.4;100.0;102230;;;;
2022/10/06 03:52:00;;;;;;;0.6;0.6;;;;;;;12.3;100.0;102230;;;;
2022/10/06 03:53:00;;;;;;;0.6;0.6;;;;;;;12.3;100.0;102230;;;;
2022/10/06 03:54:00;;;;;;;0.6;0.6;;;;;;;12.3;100.0;102240;;;;
2022/10/06 03:55:00;;;;;;;0.6;0.6;;;;;;;12.3;100.0;102240;;;;
2022/10/06 03:56:00;;;;;;;0.6;0.6;;;;;;;12.3;100.0;102250;;;;
2022/10/06 03:57:00;;;;;;;0.6;0.6;;;;;;;12.3;100.0;102250;;;;
2022/10/06 03:58:00;;;;;;;0.6;0.6;;;;;;;12.3;100.0;102240;;;;
2022/10/06 03:59:01;;;;;;;0.6;0.6;;;;;;;12.3;100.0;102240;;;;
2022/10/06 04:00:00;;;;;;;0.6;0.6;;;;;;;12.3;100.0;102250;;;;
2022/10/06 04:01:09;;;;;;;0.6;0.6;;;;;;;12.3;100.0;102260;;;;
2022/10/06 04:02:00;;;;;;;0.6;0.6;;;;;;;12.3;100.0;102260;;;;
2022/10/06 04:03:00;;;;;;;0.6;0.6;;;;;;;12.3;100.0;102260;;;;
2022/10/06 04:04:00;;;;;;;0.6;0.6;;;;;;;12.3;100.0;102260;;;;
2022/10/06 04:05:00;;;;;;;0.6;0.6;;;;;;;12.3;100.0;102260;;;;
2022/10/06 04:06:01;;;;;;;0.6;0.6;;;;;;;12.1;100.0;102270;;;;
2022/10/06 04:07:00;;;;;;;0.6;0.6;;;;;;;12.1;100.0;102270;;;;
2022/10/06 04:08:00;;;;;;;0.6;0.6;;;;;;;12.2;100.0;102270;;;;
2022/10/06 04:09:00;;;;;;;0.6;0.6;;;;;;;12.2;100.0;102270;;;;
2022/10/06 04:10:00;;;;;;;0.6;0.6;;;;;;;12.2;100.0;102280;;;;
2022/10/06 04:11:08;;;;;;;0.6;0.6;;;;;;;12.1;100.0;102280;;;;
2022/10/06 04:12:00;;;;;;;0.6;0.6;;;;;;;12.1;100.0;102280;;;;
2022/10/06 04:13:00;;;;;;;0.6;0.6;;;;;;;12.1;100.0;102280;;;;
2022/10/06 04:14:01;;;;;;;0.6;0.6;;;;;;;12.1;100.0;102280;;;;
2022/10/06 04:15:01;;;;;;;0.6;0.6;;;;;;;12.1;100.0;102280;;;;
2022/10/06 04:16:10;;;;;;;0.6;0.6;;;;;;;12.1;100.0;102290;;;;
2022/10/06 04:17:00;;;;;;;0.6;0.6;;;;;;;12.1;100.0;102290;;;;
2022/10/06 04:18:00;;;;;;;0.6;0.6;;;;;;;12.1;100.0;102290;;;;
2022/10/06 04:19:01;;;;;;;0.6;0.6;;;;;;;12.1;100.0;102290;;;;
2022/10/06 04:20:00;;;;;;;0.6;0.6;;;;;;;12.1;100.0;102290;;;;
2022/10/06 04:21:00;;;;;;;0.6;0.6;;;;;;;12.1;100.0;102290;;;;
2022/10/06 04:22:00;;;;;;;0.6;0.6;;;;;;;12.1;100.0;102290;;;;
2022/10/06 04:23:00;;;;;;;0.6;0.6;;;;;;;12.1;100.0;102290;;;;
2022/10/06 04:24:00;;;;;;;0.6;0.6;;;;;;;12.1;100.0;102300;;;;
2022/10/06 04:25:00;;;;;;;0.6;0.6;;;;;;;12.1;100.0;102300;;;;
2022/10/06 04:26:01;;;;;;;0.6;0.6;;;;;;;12.0;100.0;102300;;;;
2022/10/06 04:28:00;;;;;;;0.6;0.6;;;;;;;11.9;100.0;102310;;;;
2022/10/06 04:29:00;;;;;;;0.6;0.6;;;;;;;11.9;100.0;102310;;;;
2022/10/06 04:30:00;;;;;;;0.6;0.6;;;;;;;12.0;100.0;102310;;;;
2022/10/06 04:31:00;;;;;;;0.6;0.6;;;;;;;12.0;100.0;102310;;;;
2022/10/06 04:32:00;;;;;;;0.7;0.7;;;;;;;12.0;100.0;102310;;;;
2022/10/06 04:33:00;;;;;;;0.7;0.7;;;;;;;12.0;100.0;102310;;;;
2022/10/06 04:34:00;;;;;;;0.7;0.7;;;;;;;12.1;100.0;102300;;;;
2022/10/06 04:35:00;;;;;;;0.7;0.7;;;;;;;12.1;100.0;102300;;;;
2022/10/06 04:36:01;;;;;;;0.7;0.7;;;;;;;12.0;100.0;102310;;;;
2022/10/06 04:37:00;;;;;;;0.7;0.7;;;;;;;12.0;100.0;102310;;;;
2022/10/06 04:38:00;;;;;;;0.7;0.7;;;;;;;11.9;100.0;102310;;;;
2022/10/06 04:39:01;;;;;;;0.7;0.7;;;;;;;11.9;100.0;102310;;;;
2022/10/06 04:40:00;;;;;;;0.7;0.7;;;;;;;11.9;100.0;102320;;;;
2022/10/06 04:41:04;;;;;;;0.7;0.7;;;;;;;12.0;100.0;102320;;;;
2022/10/06 04:42:01;;;;;;;0.7;0.7;;;;;;;12.0;100.0;102320;;;;
2022/10/06 04:43:01;;;;;;;0.7;0.7;;;;;;;12.0;100.0;102320;;;;
2022/10/06 04:44:00;;;;;;;0.7;0.7;;;;;;;12.0;100.0;102320;;;;
2022/10/06 04:45:00;;;;;;;0.7;0.7;;;;;;;12.0;100.0;102320;;;;
2022/10/06 04:46:10;;;;;;;0.7;0.7;;;;;;;11.9;100.0;102330;;;;
2022/10/06 04:47:00;;;;;;;0.7;0.7;;;;;;;11.9;100.0;102330;;;;
2022/10/06 04:48:00;;;;;;;0.7;0.7;;;;;;;11.9;100.0;102330;;;;
2022/10/06 04:49:00;;;;;;;0.7;0.7;;;;;;;11.9;100.0;102330;;;;
2022/10/06 04:50:00;;;;;;;0.7;0.7;;;;;;;11.9;100.0;102330;;;;
2022/10/06 04:51:01;;;;;;;0.7;0.7;;;;;;;11.9;100.0;102330;;;;
2022/10/06 04:52:00;;;;;;;0.6;0.6;;;;;;;11.9;100.0;102330;;;;
2022/10/06 04:53:00;;;;;;;0.6;0.6;;;;;;;11.9;100.0;102330;;;;
2022/10/06 04:54:01;;;;;;;0.6;0.6;;;;;;;11.8;100.0;102340;;;;
2022/10/06 04:55:00;;;;;;;0.6;0.6;;;;;;;11.8;100.0;102340;;;;
2022/10/06 04:56:02;;;;;;;0.6;0.6;;;;;;;11.8;100.0;102340;;;;
2022/10/06 04:57:00;;;;;;;0.6;0.6;;;;;;;11.8;100.0;102340;;;;
2022/10/06 04:58:00;;;;;;;0.6;0.6;;;;;;;11.8;100.0;102340;;;;
2022/10/06 04:59:00;;;;;;;0.6;0.6;;;;;;;11.8;100.0;102340;;;;
2022/10/06 05:00:24;;;;;;;0.6;0.6;;;;;;;11.7;100.0;102340;;;;
2022/10/06 05:01:00;;;;;;;0.6;0.6;;;;;;;11.7;100.0;102340;;;;
2022/10/06 05:02:01;;;;;;;0.6;0.6;;;;;;;11.7;100.0;102350;;;;
2022/10/06 05:03:00;;;;;;;0.6;0.6;;;;;;;11.7;100.0;102350;;;;
2022/10/06 05:04:01;;;;;;;0.6;0.6;;;;;;;11.7;100.0;102350;;;;
2022/10/06 05:05:00;;;;;;;0.6;0.6;;;;;;;11.7;100.0;102350;;;;
2022/10/06 05:06:03;;;;;;;0.6;0.6;;;;;;;11.7;100.0;102350;;;;
2022/10/06 05:07:00;;;;;;;0.6;0.6;;;;;;;11.7;100.0;102350;;;;
2022/10/06 05:08:00;;;;;;;0.6;0.6;;;;;;;11.7;100.0;102350;;;;
2022/10/06 05:09:02;;;;;;;0.6;0.6;;;;;;;11.7;100.0;102360;;;;
2022/10/06 05:10:00;;;;;;;0.6;0.6;;;;;;;11.7;100.0;102360;;;;
2022/10/06 05:11:01;;;;;;;0.6;0.6;;;;;;;11.7;100.0;102360;;;;
2022/10/06 05:12:00;;;;;;;0.7;0.7;;;;;;;11.8;100.0;102360;;;;
2022/10/06 05:13:02;;;;;;;0.7;0.7;;;;;;;11.8;100.0;102360;;;;
2022/10/06 05:14:00;;;;;;;0.7;0.7;;;;;;;11.7;100.0;102370;;;;
2022/10/06 05:15:00;;;;;;;0.7;0.7;;;;;;;11.7;100.0;102370;;;;
2022/10/06 05:16:00;;;;;;;0.7;0.7;;;;;;;11.6;100.0;102370;;;;
2022/10/06 05:17:00;;;;;;;0.7;0.7;;;;;;;11.6;100.0;102370;;;;
2022/10/06 05:18:00;;;;;;;0.7;0.7;;;;;;;11.6;100.0;102380;;;;
2022/10/06 05:19:00;;;;;;;0.7;0.7;;;;;;;11.6;100.0;102380;;;;
2022/10/06 05:20:00;;;;;;;0.7;0.7;;;;;;;11.5;100.0;102380;;;;
2022/10/06 05:21:06;;;;;;;0.7;0.7;;;;;;;11.5;100.0;102380;;;;
2022/10/06 05:22:00;;;;;;;0.7;0.7;;;;;;;11.5;100.0;102380;;;;
2022/10/06 05:23:00;;;;;;;0.7;0.7;;;;;;;11.5;100.0;102380;;;;
2022/10/06 05:24:01;;;;;;;0.7;0.7;;;;;;;11.5;100.0;102380;;;;
2022/10/06 05:25:00;;;;;;;0.7;0.7;;;;;;;11.5;100.0;102380;;;;
2022/10/06 05:26:00;;;;;;;0.7;0.7;;;;;;;11.5;100.0;102390;;;;
2022/10/06 05:27:02;;;;;;;0.7;0.7;;;;;;;11.5;100.0;102390;;;;
2022/10/06 05:28:00;;;;;;;0.7;0.7;;;;;;;11.5;100.0;102400;;;;
2022/10/06 05:29:00;;;;;;;0.7;0.7;;;;;;;11.5;100.0;102400;;;;
2022/10/06 05:30:00;;;;;;;0.7;0.7;;;;;;;11.4;100.0;102400;;;;
2022/10/06 05:31:04;;;;;;;0.7;0.7;;;;;;;11.6;100.0;102400;;;;
2022/10/06 05:32:00;;;;;;;1.0;1.0;;;;;;;11.6;100.0;102400;;;;
2022/10/06 05:33:00;;;;;;;1.0;1.0;;;;;;;11.6;100.0;102400;;;;
2022/10/06 05:34:00;;;;;;;1.0;1.0;;;;;;;11.5;100.0;102400;;;;
2022/10/06 05:35:00;;;;;;;1.0;1.0;;;;;;;11.5;100.0;102400;;;;
2022/10/06 05:36:03;;;;;;;1.0;1.0;;;;;;;11.4;100.0;102400;;;;
2022/10/06 05:37:00;;;;;;;1.0;1.0;;;;;;;11.4;100.0;102400;;;;
2022/10/06 05:38:00;;;;;;;1.0;1.0;;;;;;;11.4;100.0;102410;;;;
2022/10/06 05:39:01;;;;;;;1.0;1.0;;;;;;;11.4;100.0;102410;;;;
2022/10/06 05:40:00;;;;;;;1.0;1.0;;;;;;;11.3;100.0;102410;;;;
2022/10/06 05:41:01;;;;;;;1.0;1.0;;;;;;;11.3;100.0;102410;;;;
2022/10/06 05:42:00;;;;;;;1.0;1.0;;;;;;;11.4;100.0;102410;;;;
2022/10/06 05:43:00;;;;;;;1.0;1.0;;;;;;;11.4;100.0;102410;;;;
2022/10/06 05:44:00;;;;;;;1.0;1.0;;;;;;;11.3;100.0;102410;;;;
2022/10/06 05:45:00;;;;;;;1.0;1.0;;;;;;;11.3;100.0;102410;;;;
2022/10/06 05:46:01;;;;;;;1.0;1.0;;;;;;;11.2;100.0;102420;;;;
2022/10/06 05:47:00;;;;;;;1.0;1.0;;;;;;;11.2;100.0;102420;;;;
2022/10/06 05:48:00;;;;;;;1.0;1.0;;;;;;;11.3;100.0;102420;;;;
2022/10/06 05:49:02;;;;;;;1.0;1.0;;;;;;;11.3;100.0;102420;;;;
2022/10/06 05:50:00;;;;;;;1.0;1.0;;;;;;;11.3;100.0;102420;;;;
2022/10/06 05:51:01;;;;;;;1.0;1.0;;;;;;;11.3;100.0;102420;;;;
2022/10/06 05:52:00;;;;;;;0.7;0.7;;;;;;;11.3;100.0;102420;;;;
2022/10/06 05:53:00;;;;;;;0.7;0.7;;;;;;;11.3;100.0;102420;;;;
2022/10/06 05:54:00;;;;;;;0.7;0.7;;;;;;;11.3;100.0;102430;;;;
2022/10/06 05:55:00;;;;;;;0.7;0.7;;;;;;;11.3;100.0;102430;;;;
2022/10/06 05:56:02;;;;;;;0.7;0.7;;;;;;;11.2;100.0;102430;;;;
2022/10/06 05:57:00;;;;;;;0.7;0.7;;;;;;;11.2;100.0;102430;;;;
2022/10/06 05:58:00;;;;;;;0.7;0.7;;;;;;;11.2;100.0;102440;;;;
2022/10/06 05:59:00;;;;;;;0.7;0.7;;;;;;;11.2;100.0;102440;;;;
2022/10/06 06:00:00;;;;;;;0.7;0.7;;;;;;;11.1;100.0;102440;;;;
2022/10/06 06:01:10;;;;;;;0.7;0.7;;;;;;;11.2;100.0;102450;;;;
2022/10/06 06:02:00;;;;;;;0.7;0.7;;;;;;;11.2;100.0;102450;;;;
2022/10/06 06:03:01;;;;;;;0.7;0.7;;;;;;;11.2;100.0;102450;;;;
2022/10/06 06:04:02;;;;;;;0.7;0.7;;;;;;;11.2;100.0;102450;;;;
2022/10/06 06:05:00;;;;;;;0.7;0.7;;;;;;;11.2;100.0;102450;;;;
2022/10/06 06:06:00;;;;;;;0.7;0.7;;;;;;;11.1;100.0;102450;;;;
2022/10/06 06:07:00;;;;;;;0.7;0.7;;;;;;;11.1;100.0;102450;;;;
2022/10/06 06:08:00;;;;;;;0.7;0.7;;;;;;;11.1;100.0;102460;;;;
2022/10/06 06:09:01;;;;;;;0.7;0.7;;;;;;;11.1;100.0;102460;;;;
2022/10/06 06:10:00;;;;;;;0.7;0.7;;;;;;;11.1;100.0;102460;;;;
2022/10/06 06:11:07;;;;;;;15.9;3.2;;;;;;;11.2;100.0;102460;;;;
2022/10/06 06:12:00;;;;;;;15.9;3.2;;;;;;;11.2;100.0;102460;;;;
2022/10/06 06:13:00;;;;;;;15.9;3.2;;;;;;;11.2;100.0;102460;;;;
2022/10/06 06:14:01;;;;;;;15.9;3.2;;;;;;;11.1;100.0;102460;;;;
2022/10/06 06:16:01;;;;;;;15.9;3.2;;;;;;;11.1;100.0;102470;;;;
2022/10/06 06:17:00;;;;;;;15.9;3.2;;;;;;;11.1;100.0;102470;;;;
2022/10/06 06:18:03;;;;;;;15.9;3.2;;;;;;;11.1;100.0;102470;;;;
2022/10/06 06:19:00;;;;;;;15.9;3.2;;;;;;;11.1;100.0;102470;;;;
2022/10/06 06:20:00;;;;;;;15.9;3.2;;;;;;;11.1;100.0;102470;;;;
2022/10/06 06:21:03;;;;;;;15.9;3.2;;;;;;;11.0;100.0;102480;;;;
2022/10/06 06:22:00;;;;;;;15.9;3.2;;;;;;;11.0;100.0;102480;;;;
2022/10/06 06:23:00;;;;;;;15.9;3.2;;;;;;;11.0;100.0;102480;;;;
2022/10/06 06:24:01;;;;;;;15.9;3.2;;;;;;;11.1;100.0;102480;;;;